Time;durP1;ratioP1;P1;durP2;ratioP2;P2;SDS_P1;SDS_P2;PMS_P1;PMS_P2;Temp;Humidity;BMP_temperature;BMP_pressure;BME280_temperature;BME280_humidity;BME280_pressure;Samples;Min_cycle;Max_cycle;Signal;HPM_P1;HPM_P2
2022/12/27 00:00:07;;;;;;;;;;;;;;;8.81;100.00;98412.13;5124218;28;19932;-61
2022/12/27 00:02:35;;;;;;;;;;;;;;;8.82;100.00;98414.53;5121051;28;19981;-61
2022/12/27 00:05:03;;;;;;;;;;;;;;;8.86;100.00;98428.19;5121165;28;19988;-60
2022/12/27 00:07:29;;;;;;;;;;;;;;;8.79;100.00;98427.53;5112626;28;19924;-61
2022/12/27 00:09:57;;;;;;;;;;;;;;;8.81;100.00;98425.44;5120753;28;19960;-60
2022/12/27 00:12:23;;;;;;;;;;;;;;;8.74;100.00;98425.56;5123272;28;19931;-62
2022/12/27 00:14:50;;;;;;;;;;;;;;;8.75;100.00;98440.50;5123967;28;19983;-63
2022/12/27 00:17:16;;;;;;;;;;;;;;;8.80;100.00;98442.44;5122051;28;19971;-61
2022/12/27 00:19:42;;;;;;;;;;;;;;;8.76;100.00;98441.31;5120286;28;19954;-61
2022/12/27 00:22:10;;;;;;;;;;;;;;;8.66;100.00;98442.72;5119994;28;19951;-61
2022/12/27 00:24:36;;;;;;;;;;;;;;;8.72;100.00;98456.16;5119863;28;19924;-60
2022/12/27 00:27:03;;;;;;;;;;;;;;;8.75;100.00;98453.81;5120144;28;19984;-60
2022/12/27 00:29:29;;;;;;;;;;;;;;;8.63;100.00;98461.84;5111794;28;19924;-61
2022/12/27 00:31:55;;;;;;;;;;;;;;;8.69;100.00;98478.75;5120077;28;19969;-61
2022/12/27 00:34:22;;;;;;;;;;;;;;;8.66;100.00;98488.00;5122563;28;19932;-61
2022/12/27 00:36:48;;;;;;;;;;;;;;;8.67;100.00;98507.44;5123525;28;19987;-61
2022/12/27 00:39:16;;;;;;;;;;;;;;;8.64;100.00;98516.72;5121929;28;19963;-61
2022/12/27 00:41:42;;;;;;;;;;;;;;;8.52;100.00;98523.91;5119962;28;19941;-61
2022/12/27 00:44:09;;;;;;;;;;;;;;;8.44;100.00;98544.78;5102279;28;19955;-61
2022/12/27 00:46:35;;;;;;;;;;;;;;;8.32;100.00;98562.59;5123232;28;19980;-60
2022/12/27 00:49:02;;;;;;;;;;;;;;;8.25;100.00;98565.34;5123147;28;19987;-61
2022/12/27 00:51:28;;;;;;;;;;;;;;;8.25;100.00;98573.34;5119651;28;19928;-60
2022/12/27 00:53:55;;;;;;;;;;;;;;;8.33;100.00;98567.69;5118188;28;19967;-61
2022/12/27 00:56:24;;;;;;;;;;;;;;;8.24;100.00;98565.56;5120376;28;19938;-61
2022/12/27 00:58:52;;;;;;;;;;;;;;;8.25;100.00;98583.16;5119692;28;19968;-60
2022/12/27 01:01:19;;;;;;;;;;;;;;;8.35;100.00;98586.91;5121554;28;19924;-61
2022/12/27 01:03:45;;;;;;;;;;;;;;;8.43;100.00;98585.72;5122139;28;19995;-61
2022/12/27 01:06:13;;;;;;;;;;;;;;;8.30;100.00;98573.47;5121479;28;19987;-60
2022/12/27 01:08:39;;;;;;;;;;;;;;;8.27;100.00;98589.88;5119263;28;19991;-62
2022/12/27 01:11:06;;;;;;;;;;;;;;;8.33;100.00;98583.66;5119396;28;20113;-61
2022/12/27 01:13:35;;;;;;;;;;;;;;;8.26;100.00;98588.28;5122594;28;19924;-60
2022/12/27 01:16:01;;;;;;;;;;;;;;;8.29;100.00;98606.47;5122684;28;19954;-61
2022/12/27 01:18:28;;;;;;;;;;;;;;;8.30;100.00;98608.06;5119132;28;19924;-61
2022/12/27 01:20:54;;;;;;;;;;;;;;;8.28;100.00;98617.31;5119166;28;19960;-61
2022/12/27 01:23:20;;;;;;;;;;;;;;;8.22;100.00;98616.38;5120748;28;19959;-60
2022/12/27 01:25:47;;;;;;;;;;;;;;;8.27;100.00;98620.97;5122413;28;19976;-60
2022/12/27 01:28:13;;;;;;;;;;;;;;;8.03;100.00;98625.47;5120938;28;20339;-60
2022/12/27 01:30:41;;;;;;;;;;;;;;;8.15;100.00;98631.63;5118793;28;20022;-61
2022/12/27 01:33:07;;;;;;;;;;;;;;;8.12;100.00;98626.75;5119226;28;19947;-60
2022/12/27 01:35:33;;;;;;;;;;;;;;;8.21;100.00;98640.53;5122293;28;19979;-61
2022/12/27 01:37:59;;;;;;;;;;;;;;;8.19;100.00;98635.47;5122359;28;19924;-61
2022/12/27 01:40:26;;;;;;;;;;;;;;;8.15;100.00;98643.09;5119173;28;19969;-60
2022/12/27 01:42:51;;;;;;;;;;;;;;;8.24;100.00;98656.84;5118720;28;19984;-61
2022/12/27 01:45:18;;;;;;;;;;;;;;;8.23;100.00;98670.41;5120681;28;19924;-60
2022/12/27 01:47:55;;;;;;;;;;;;;;;8.23;100.00;98667.75;5122180;28;19954;-60
2022/12/27 01:50:24;;;;;;;;;;;;;;;8.12;100.00;98672.00;5119437;28;19923;-60
2022/12/27 01:52:53;;;;;;;;;;;;;;;8.13;100.00;98670.97;5118185;28;19924;-60
2022/12/27 01:55:22;;;;;;;;;;;;;;;8.07;100.00;98667.38;5120510;28;19956;-61
2022/12/27 01:57:50;;;;;;;;;;;;;;;8.09;100.00;98669.78;5121991;28;19991;-60
2022/12/27 02:00:16;;;;;;;;;;;;;;;8.06;100.00;98675.56;5120356;28;19951;-60
2022/12/27 02:02:42;;;;;;;;;;;;;;;7.84;100.00;98687.75;5118818;28;19991;-59
2022/12/27 02:05:11;;;;;;;;;;;;;;;7.82;100.00;98689.84;5119496;28;19962;-61
2022/12/27 02:07:42;;;;;;;;;;;;;;;7.75;100.00;98692.59;5122200;28;19924;-60
2022/12/27 02:10:08;;;;;;;;;;;;;;;7.79;100.00;98706.25;5120957;28;20006;-61
2022/12/27 02:12:35;;;;;;;;;;;;;;;7.73;100.00;98707.16;5100404;28;19991;-61
2022/12/27 02:15:03;;;;;;;;;;;;;;;7.71;100.00;98706.53;5118401;28;19983;-60
2022/12/27 02:17:30;;;;;;;;;;;;;;;7.66;100.00;98703.75;5110014;28;19931;-60
2022/12/27 02:20:00;;;;;;;;;;;;;;;7.67;100.00;98713.38;5118289;28;20630;-60
2022/12/27 02:25:28;;;;;;;;;;;;;;;7.73;100.00;98728.41;5119904;28;19956;-60
2022/12/27 02:28:02;;;;;;;;;;;;;;;7.69;100.00;98730.72;5121555;28;19987;-60
2022/12/27 02:30:31;;;;;;;;;;;;;;;7.73;100.00;98739.06;5117812;28;20033;-61
2022/12/27 02:33:02;;;;;;;;;;;;;;;7.74;100.00;98745.97;5118175;28;19959;-60
2022/12/27 02:35:32;;;;;;;;;;;;;;;7.73;100.00;98749.69;5121492;28;19924;-62
2022/12/27 02:38:02;;;;;;;;;;;;;;;7.69;100.00;98756.47;5121832;28;19987;-61
2022/12/27 02:54:51;;;;;;;;;;;;;;;7.16;100.00;98783.66;5111371;28;19924;-60
2022/12/27 02:57:21;;;;;;;;;;;;;;;7.31;100.00;98785.94;5120122;28;19952;-61
2022/12/27 03:03:22;;;;;;;;;;;;;;;7.33;100.00;98794.53;5054766;28;20364;-60
2022/12/27 03:08:44;;;;;;;;;;;;;;;7.47;100.00;98804.78;5109848;28;19924;-60
2022/12/27 03:17:00;;;;;;;;;;;;;;;7.25;100.00;98803.59;5112322;28;19924;-61
2022/12/27 03:27:41;;;;;;;;;;;;;;;7.45;100.00;98830.78;5114276;28;19924;-60
2022/12/27 03:35:41;;;;;;;;;;;;;;;7.11;100.00;98836.63;5113911;28;19928;-60
2022/12/27 03:38:11;;;;;;;;;;;;;;;7.17;100.00;98838.41;5121435;28;20006;-61
2022/12/27 03:43:09;;;;;;;;;;;;;;;7.23;100.00;98839.38;5124485;28;19924;-61
2022/12/27 03:43:29;;;;;;;;;;;;;;;7.13;100.00;98845.19;5112585;28;19924;-59
2022/12/27 03:49:06;;;;;;;;;;;;;;;7.19;100.00;98854.13;5114100;28;19954;-61
2022/12/27 03:51:37;;;;;;;;;;;;;;;7.22;100.00;98851.03;5112830;28;19967;-60
2022/12/27 03:54:07;;;;;;;;;;;;;;;7.09;100.00;98862.56;5120304;28;19974;-61
2022/12/27 03:56:33;;;;;;;;;;;;;;;7.09;100.00;98867.88;5112771;28;19992;-61
2022/12/27 03:59:00;;;;;;;;;;;;;;;7.11;100.00;98867.69;5120699;28;19979;-60
2022/12/27 04:01:26;;;;;;;;;;;;;;;7.17;100.00;98878.25;5123754;28;20544;-60
2022/12/27 04:03:53;;;;;;;;;;;;;;;7.19;100.00;98878.03;5123996;28;19966;-61
2022/12/27 04:06:19;;;;;;;;;;;;;;;7.25;100.00;98882.47;5103565;28;20000;-60
2022/12/27 04:36:07;;;;;;;;;;;;;;;7.36;100.00;98919.78;5123017;28;19931;-60
2022/12/27 04:38:34;;;;;;;;;;;;;;;7.31;100.00;98919.63;5118783;28;19935;-60
2022/12/27 04:54:57;;;;;;;;;;;;;;;7.40;100.00;98925.47;5119704;28;19935;-60
2022/12/27 04:57:25;;;;;;;;;;;;;;;7.43;100.00;98933.00;5103947;28;20647;-61
2022/12/27 05:02:37;;;;;;;;;;;;;;;7.43;100.00;98941.78;5093327;28;19919;-59
2022/12/27 05:05:04;;;;;;;;;;;;;;;7.42;100.00;98945.50;5119417;28;20035;-60
2022/12/27 05:15:55;;;;;;;;;;;;;;;7.35;100.00;98949.22;5119276;28;19924;-60
2022/12/27 05:18:22;;;;;;;;;;;;;;;7.30;100.00;98957.03;5121568;28;19979;-60
2022/12/27 05:20:48;;;;;;;;;;;;;;;7.14;100.00;98955.72;5122521;28;19924;-60
2022/12/27 05:25:58;;;;;;;;;;;;;;;7.14;100.00;98955.72;5122439;28;19979;-60
2022/12/27 05:28:26;;;;;;;;;;;;;;;7.06;100.00;98958.63;5119399;28;19995;-61
2022/12/27 05:30:52;;;;;;;;;;;;;;;7.01;100.00;98961.13;5118623;28;19971;-62
2022/12/27 05:33:19;;;;;;;;;;;;;;;7.09;100.00;98965.38;5120736;28;19936;-60
2022/12/27 05:35:45;;;;;;;;;;;;;;;7.10;100.00;98967.81;5122391;28;19932;-60
2022/12/27 05:38:12;;;;;;;;;;;;;;;6.98;100.00;98961.56;5121013;28;19920;-61
2022/12/27 05:40:38;;;;;;;;;;;;;;;6.96;100.00;98966.28;5118728;28;19959;-60
2022/12/27 05:43:04;;;;;;;;;;;;;;;7.01;100.00;98969.09;5118569;28;19926;-60
2022/12/27 05:45:32;;;;;;;;;;;;;;;7.08;100.00;98969.88;5121892;28;19981;-60
2022/12/27 05:47:58;;;;;;;;;;;;;;;7.08;100.00;98975.19;5122174;28;20023;-61
2022/12/27 05:50:25;;;;;;;;;;;;;;;7.08;100.00;98980.50;5118997;28;19928;-60
2022/12/27 05:52:51;;;;;;;;;;;;;;;7.06;100.00;98971.91;5117843;28;19983;-61
2022/12/27 05:55:18;;;;;;;;;;;;;;;7.09;100.00;98974.13;5120570;28;19979;-60
2022/12/27 05:57:44;;;;;;;;;;;;;;;7.10;100.00;98974.97;5123900;28;19970;-60
2022/12/27 06:00:11;;;;;;;;;;;;;;;7.12;100.00;98975.56;5126438;28;19961;-60
2022/12/27 06:02:39;;;;;;;;;;;;;;;7.09;100.00;98968.81;5124023;28;19935;-61
2022/12/27 06:05:06;;;;;;;;;;;;;;;7.09;100.00;98976.78;5124480;28;19920;-61
2022/12/27 06:07:32;;;;;;;;;;;;;;;7.11;100.00;98980.06;5127968;28;19920;-60
2022/12/27 06:09:58;;;;;;;;;;;;;;;7.09;100.00;98982.09;5127814;28;19930;-60
2022/12/27 06:12:25;;;;;;;;;;;;;;;7.05;100.00;98980.94;5124927;28;19957;-60
2022/12/27 06:14:51;;;;;;;;;;;;;;;6.95;100.00;98985.88;5122839;28;19963;-60
2022/12/27 06:17:17;;;;;;;;;;;;;;;6.89;100.00;98984.09;5126001;28;19912;-61
2022/12/27 06:19:45;;;;;;;;;;;;;;;6.73;100.00;98987.22;5127712;28;19932;-61
2022/12/27 06:22:12;;;;;;;;;;;;;;;6.26;100.00;98993.72;5106075;28;19966;-60
2022/12/27 06:24:38;;;;;;;;;;;;;;;6.03;100.00;98991.56;5120294;28;19954;-60
2022/12/27 06:27:04;;;;;;;;;;;;;;;6.25;100.00;99000.88;5120086;28;19928;-60
2022/12/27 06:29:31;;;;;;;;;;;;;;;6.22;100.00;99003.16;5122917;28;19924;-60
2022/12/27 06:31:57;;;;;;;;;;;;;;;6.42;100.00;99002.06;5122263;28;19920;-61
2022/12/27 06:34:23;;;;;;;;;;;;;;;6.53;100.00;99007.75;5119176;28;20417;-60
2022/12/27 06:36:51;;;;;;;;;;;;;;;6.67;100.00;99001.34;5118380;28;19959;-60
2022/12/27 06:39:18;;;;;;;;;;;;;;;6.74;100.00;99018.88;5119751;28;19920;-60
2022/12/27 06:41:44;;;;;;;;;;;;;;;6.65;100.00;99022.00;5121623;28;20014;-64
2022/12/27 06:44:11;;;;;;;;;;;;;;;6.76;100.00;99024.78;5120628;28;20015;-61
2022/12/27 06:46:37;;;;;;;;;;;;;;;6.76;100.00;99027.44;5118184;28;19988;-60
2022/12/27 06:49:04;;;;;;;;;;;;;;;6.76;100.00;99042.56;5117845;28;19983;-61
2022/12/27 06:51:30;;;;;;;;;;;;;;;6.70;100.00;99046.88;5109780;28;19988;-60
2022/12/27 06:53:58;;;;;;;;;;;;;;;6.64;100.00;99045.06;5116499;28;19955;-60
2022/12/27 06:56:24;;;;;;;;;;;;;;;6.71;100.00;99045.03;5118697;28;19923;-61
2022/12/27 06:58:51;;;;;;;;;;;;;;;6.56;100.00;99044.47;5117905;28;19996;-60
2022/12/27 07:01:19;;;;;;;;;;;;;;;6.58;100.00;99043.25;5120772;28;19920;-60
2022/12/27 07:03:48;;;;;;;;;;;;;;;6.67;100.00;99043.81;5125160;28;19951;-60
2022/12/27 07:06:14;;;;;;;;;;;;;;;6.75;100.00;99055.00;5123642;28;19924;-61
2022/12/27 07:08:40;;;;;;;;;;;;;;;6.80;100.00;99043.78;5121666;28;20064;-60
2022/12/27 07:11:09;;;;;;;;;;;;;;;6.78;100.00;99051.94;5121753;28;20015;-60
2022/12/27 07:13:35;;;;;;;;;;;;;;;6.66;100.00;99050.13;5125002;28;19930;-61
2022/12/27 07:16:03;;;;;;;;;;;;;;;6.70;100.00;99046.88;5125138;28;19988;-60
2022/12/27 07:18:29;;;;;;;;;;;;;;;6.71;100.00;99055.66;5113294;28;20010;-60
2022/12/27 07:20:56;;;;;;;;;;;;;;;6.72;100.00;99051.94;5121779;28;19928;-60
2022/12/27 07:23:22;;;;;;;;;;;;;;;6.71;100.00;99053.00;5123091;28;20419;-60
2022/12/27 07:25:49;;;;;;;;;;;;;;;6.70;100.00;99054.84;5124930;28;19924;-60
2022/12/27 07:28:16;;;;;;;;;;;;;;;6.52;100.00;99067.97;5123274;28;19928;-61
2022/12/27 07:30:43;;;;;;;;;;;;;;;6.27;100.00;99064.34;5121387;28;19924;-60
2022/12/27 07:33:09;;;;;;;;;;;;;;;6.10;100.00;99071.91;5121552;28;19924;-60
2022/12/27 07:35:35;;;;;;;;;;;;;;;6.30;100.00;99074.53;5124751;28;19962;-60
2022/12/27 07:38:02;;;;;;;;;;;;;;;6.38;100.00;99064.53;5124698;28;19927;-60
2022/12/27 07:40:28;;;;;;;;;;;;;;;6.16;100.00;99065.78;5121349;28;19924;-60
2022/12/27 07:42:54;;;;;;;;;;;;;;;6.00;100.00;99068.06;5121165;28;19924;-61
2022/12/27 07:45:22;;;;;;;;;;;;;;;6.18;100.00;99065.59;5123479;28;19955;-60
2022/12/27 07:47:49;;;;;;;;;;;;;;;6.04;100.00;99070.09;5124861;28;19935;-62
2022/12/27 07:50:16;;;;;;;;;;;;;;;6.00;100.00;99066.22;5122876;28;19953;-61
2022/12/27 07:52:42;;;;;;;;;;;;;;;5.80;100.00;99075.97;5120293;28;19991;-60
2022/12/27 07:55:09;;;;;;;;;;;;;;;5.69;100.00;99076.59;5121344;28;19991;-60
2022/12/27 07:57:35;;;;;;;;;;;;;;;5.88;100.00;99075.81;5124272;28;20317;-60
2022/12/27 08:00:02;;;;;;;;;;;;;;;5.93;100.00;99081.31;5124292;28;19935;-61
2022/12/27 08:02:29;;;;;;;;;;;;;;;5.70;100.00;99084.34;5120856;28;19963;-60
2022/12/27 08:04:56;;;;;;;;;;;;;;;5.70;100.00;99081.69;5120606;28;19999;-61
2022/12/27 08:07:24;;;;;;;;;;;;;;;5.95;100.00;99084.56;5123062;28;19987;-60
2022/12/27 08:09:50;;;;;;;;;;;;;;;6.19;100.00;99081.28;5124201;28;19931;-61
2022/12/27 08:12:17;;;;;;;;;;;;;;;6.17;100.00;99075.38;5121456;28;19987;-61
2022/12/27 08:14:43;;;;;;;;;;;;;;;6.07;100.00;99092.72;5120484;28;19952;-60
2022/12/27 08:17:14;;;;;;;;;;;;;;;6.12;100.00;99085.81;5121128;28;19977;-60
2022/12/27 08:19:42;;;;;;;;;;;;;;;6.22;100.00;99096.78;5124134;28;19945;-60
2022/12/27 08:22:09;;;;;;;;;;;;;;;6.29;100.00;99089.66;5122569;28;19930;-60
2022/12/27 08:24:37;;;;;;;;;;;;;;;6.21;100.00;99095.19;5119791;28;19924;-60
2022/12/27 08:27:03;;;;;;;;;;;;;;;6.19;100.00;99089.25;5120108;28;19924;-61
2022/12/27 08:29:29;;;;;;;;;;;;;;;6.27;100.00;99089.03;5106766;28;19971;-61
2022/12/27 08:31:56;;;;;;;;;;;;;;;6.42;100.00;99094.09;5123628;28;19959;-60
2022/12/27 08:34:22;;;;;;;;;;;;;;;6.43;100.00;99101.88;5120846;28;19998;-60
2022/12/27 08:36:51;;;;;;;;;;;;;;;6.38;100.00;99101.66;5119971;28;19944;-61
2022/12/27 08:39:18;;;;;;;;;;;;;;;6.43;100.00;99101.88;5121587;28;19955;-61
2022/12/27 08:41:44;;;;;;;;;;;;;;;6.45;100.00;99106.97;5123373;28;20510;-60
2022/12/27 08:44:11;;;;;;;;;;;;;;;6.44;100.00;99108.78;5122408;28;19952;-60
2022/12/27 08:46:37;;;;;;;;;;;;;;;6.40;100.00;99117.41;5120006;28;19959;-60
2022/12/27 08:49:04;;;;;;;;;;;;;;;6.37;100.00;99118.63;5119879;28;19991;-60
2022/12/27 08:51:30;;;;;;;;;;;;;;;6.33;100.00;99119.22;5111223;28;19924;-61
2022/12/27 08:53:58;;;;;;;;;;;;;;;6.13;100.00;99124.53;5118167;28;19994;-60
2022/12/27 08:56:25;;;;;;;;;;;;;;;6.23;100.00;99117.00;5120218;28;19935;-60
2022/12/27 08:58:51;;;;;;;;;;;;;;;6.27;100.00;99126.19;5119608;28;19974;-60
2022/12/27 09:01:18;;;;;;;;;;;;;;;6.37;100.00;99123.94;5121189;28;19964;-60
2022/12/27 09:03:44;;;;;;;;;;;;;;;6.39;100.00;99119.22;5123047;28;19959;-60
2022/12/27 09:06:11;;;;;;;;;;;;;;;6.38;100.00;99119.41;5121910;28;19995;-60
2022/12/27 09:08:38;;;;;;;;;;;;;;;6.25;100.00;99119.47;5119237;28;19979;-60
2022/12/27 09:11:10;;;;;;;;;;;;;;;6.24;100.00;99123.94;5119149;28;20014;-60
2022/12/27 09:13:37;;;;;;;;;;;;;;;6.32;100.00;99128.19;5111308;28;19931;-61
2022/12/27 09:16:05;;;;;;;;;;;;;;;6.04;100.00;99136.38;5118992;28;19996;-61
2022/12/27 09:18:31;;;;;;;;;;;;;;;5.86;100.00;99129.03;5110964;28;20022;-60
2022/12/27 09:21:02;;;;;;;;;;;;;;;5.94;100.00;99126.19;5119030;28;19940;-60
2022/12/27 09:23:29;;;;;;;;;;;;;;;5.85;100.00;99122.09;5120643;28;19927;-60
2022/12/27 09:25:55;;;;;;;;;;;;;;;6.10;100.00;99127.59;5122395;28;19931;-60
2022/12/27 09:28:23;;;;;;;;;;;;;;;6.04;100.00;99119.66;5119953;28;20006;-60
2022/12/27 09:30:49;;;;;;;;;;;;;;;5.92;100.00;99132.72;5118813;28;19947;-60
2022/12/27 09:33:16;;;;;;;;;;;;;;;6.08;100.00;99134.97;5120341;28;19960;-60
2022/12/27 09:35:43;;;;;;;;;;;;;;;5.92;100.00;99135.34;5122076;28;19970;-60
2022/12/27 09:38:09;;;;;;;;;;;;;;;5.75;100.00;99136.75;5121174;28;19924;-60
2022/12/27 09:40:36;;;;;;;;;;;;;;;5.99;100.00;99133.53;5118455;28;19947;-61
2022/12/27 09:43:06;;;;;;;;;;;;;;;5.80;100.00;99131.66;5118483;28;19963;-59
2022/12/27 09:45:37;;;;;;;;;;;;;;;6.04;100.00;99124.94;5110167;28;19976;-60
2022/12/27 09:48:09;;;;;;;;;;;;;;;6.07;100.00;99129.84;5118347;28;19931;-60
2022/12/27 09:50:40;;;;;;;;;;;;;;;6.11;100.00;99118.63;5110828;28;19920;-60
2022/12/27 09:53:12;;;;;;;;;;;;;;;6.08;100.00;99120.88;5099737;28;20007;-61
2022/12/27 09:55:41;;;;;;;;;;;;;;;5.92;100.00;99122.09;5121896;28;19931;-60
2022/12/27 09:58:15;;;;;;;;;;;;;;;5.75;100.00;99115.53;5121423;28;19996;-60
2022/12/27 10:00:44;;;;;;;;;;;;;;;5.78;100.00;99112.50;5118538;28;19947;-61
2022/12/27 10:03:11;;;;;;;;;;;;;;;5.88;100.00;99110.28;5119107;28;19935;-60
2022/12/27 10:05:38;;;;;;;;;;;;;;;5.87;100.00;99120.06;5122044;28;19973;-60
2022/12/27 10:08:16;;;;;;;;;;;;;;;6.07;100.00;99117.41;5121902;28;19939;-59
2022/12/27 10:10:44;;;;;;;;;;;;;;;6.14;100.00;99114.75;5111983;28;19979;-61
2022/12/27 10:13:19;;;;;;;;;;;;;;;6.05;100.00;99108.84;5118989;28;19967;-60
2022/12/27 10:15:51;;;;;;;;;;;;;;;6.08;100.00;99095.19;5121884;28;19950;-60
2022/12/27 10:18:26;;;;;;;;;;;;;;;5.96;100.00;99096.81;5101904;28;19924;-60
2022/12/27 10:20:58;;;;;;;;;;;;;;;6.18;100.00;99092.13;5118454;28;19995;-60
2022/12/27 10:23:26;;;;;;;;;;;;;;;6.19;100.00;99086.59;5120093;28;20439;-60
2022/12/27 10:25:56;;;;;;;;;;;;;;;6.17;100.00;99083.34;5122110;28;19955;-60
2022/12/27 10:28:27;;;;;;;;;;;;;;;6.05;100.00;99086.81;5119293;28;19930;-60
2022/12/27 10:30:55;;;;;;;;;;;;;;;5.92;100.00;99083.16;5118536;28;19935;-60
2022/12/27 10:33:28;;;;;;;;;;;;;;;6.07;100.00;99090.88;5120476;28;19955;-60
2022/12/27 10:35:54;;;;;;;;;;;;;;;5.91;100.00;99089.47;5122901;28;19963;-60
2022/12/27 10:38:21;;;;;;;;;;;;;;;6.03;100.00;99081.72;5123624;28;19920;-60
2022/12/27 10:40:51;;;;;;;;;;;;;;;6.18;100.00;99095.59;5122380;28;19982;-60
2022/12/27 10:43:19;;;;;;;;;;;;;;;6.14;100.00;99082.94;5123870;28;19995;-60
2022/12/27 10:45:45;;;;;;;;;;;;;;;6.18;100.00;99087.63;5125852;28;20552;-60
2022/12/27 10:48:16;;;;;;;;;;;;;;;6.02;100.00;99093.34;5124561;28;19983;-61
2022/12/27 10:50:46;;;;;;;;;;;;;;;6.22;100.00;99080.09;5122200;28;19920;-60
2022/12/27 10:53:26;;;;;;;;;;;;;;;6.23;100.00;99082.50;5122275;28;19924;-60
2022/12/27 10:56:05;;;;;;;;;;;;;;;6.25;100.00;99084.97;5125716;28;19924;-60
2022/12/27 10:58:36;;;;;;;;;;;;;;;6.22;100.00;99080.88;5113967;28;19987;-61
2022/12/27 11:01:03;;;;;;;;;;;;;;;6.28;100.00;99085.34;5122057;28;19976;-60
2022/12/27 11:03:31;;;;;;;;;;;;;;;6.18;100.00;99076.19;5125178;28;19935;-60
2022/12/27 11:06:01;;;;;;;;;;;;;;;6.23;100.00;99077.22;5125380;28;19933;-60
2022/12/27 11:08:28;;;;;;;;;;;;;;;6.35;100.00;99074.72;5121918;28;19935;-60
2022/12/27 11:11:09;;;;;;;;;;;;;;;6.27;100.00;99059.88;5121838;28;19958;-61
2022/12/27 11:13:36;;;;;;;;;;;;;;;6.20;100.00;99066.19;5114027;28;19920;-61
2022/12/27 11:16:02;;;;;;;;;;;;;;;6.11;100.00;99067.44;5121826;28;20002;-60
2022/12/27 11:18:29;;;;;;;;;;;;;;;6.18;100.00;99066.41;5124805;28;20007;-60
2022/12/27 11:20:59;;;;;;;;;;;;;;;6.17;100.00;99062.13;5125157;28;19963;-61
2022/12/27 11:23:29;;;;;;;;;;;;;;;6.21;100.00;99063.34;5115842;28;19924;-60
2022/12/27 11:25:56;;;;;;;;;;;;;;;6.21;100.00;99063.34;5125163;28;20038;-60
2022/12/27 11:28:26;;;;;;;;;;;;;;;6.10;100.00;99071.09;5122531;28;19983;-60
2022/12/27 11:30:55;;;;;;;;;;;;;;;6.21;100.00;99062.53;5121419;28;19999;-61
2022/12/27 11:33:23;;;;;;;;;;;;;;;6.18;100.00;99063.75;5123407;28;19942;-60
2022/12/27 11:35:52;;;;;;;;;;;;;;;6.30;100.00;99054.13;5124790;28;20048;-61
2022/12/27 11:38:23;;;;;;;;;;;;;;;6.33;100.00;99061.69;5122601;28;19965;-61
2022/12/27 11:40:57;;;;;;;;;;;;;;;6.31;100.00;99052.31;5120957;28;19924;-60
2022/12/27 11:43:26;;;;;;;;;;;;;;;6.11;100.00;99047.03;5123500;28;19920;-60
2022/12/27 11:45:54;;;;;;;;;;;;;;;6.25;100.00;99045.19;5124509;28;20421;-60
2022/12/27 11:48:24;;;;;;;;;;;;;;;6.24;100.00;99039.06;5121738;28;19924;-60
2022/12/27 11:50:56;;;;;;;;;;;;;;;6.16;100.00;99039.25;5121057;28;19975;-61
2022/12/27 11:53:34;;;;;;;;;;;;;;;6.12;100.00;99043.38;5122377;28;19956;-60
2022/12/27 11:56:16;;;;;;;;;;;;;;;6.23;100.00;99039.25;5124442;28;19961;-61
2022/12/27 11:59:06;;;;;;;;;;;;;;;6.26;100.00;99038.84;5113158;28;20024;-60
2022/12/27 12:01:54;;;;;;;;;;;;;;;6.48;100.00;99033.06;5112389;28;20000;-60
2022/12/27 12:04:39;;;;;;;;;;;;;;;6.44;100.00;99038.97;5122234;28;19993;-60
2022/12/27 12:07:11;;;;;;;;;;;;;;;6.27;100.00;99030.69;5123443;28;19956;-61
2022/12/27 12:09:53;;;;;;;;;;;;;;;6.32;100.00;99041.47;5120497;28;19986;-60
2022/12/27 12:12:32;;;;;;;;;;;;;;;6.48;100.00;99038.38;5122366;28;19952;-59
2022/12/27 12:15:26;;;;;;;;;;;;;;;6.42;100.00;99028.59;5124126;28;19959;-60
2022/12/27 12:18:01;;;;;;;;;;;;;;;6.57;100.00;99035.47;5115416;28;19984;-61
2022/12/27 12:20:39;;;;;;;;;;;;;;;6.53;100.00;99033.25;5123450;28;19924;-60
2022/12/27 12:23:10;;;;;;;;;;;;;;;6.55;100.00;99038.34;5114517;28;19924;-62
2022/12/27 12:25:44;;;;;;;;;;;;;;;6.49;100.00;99029.41;5123811;28;19989;-60
2022/12/27 12:28:30;;;;;;;;;;;;;;;6.62;100.00;99027.72;5122896;28;19931;-59
2022/12/27 12:31:05;;;;;;;;;;;;;;;6.40;100.00;99028.00;5120026;28;19963;-61
2022/12/27 12:33:39;;;;;;;;;;;;;;;6.40;100.00;99028.00;5111655;28;19991;-61
2022/12/27 12:36:21;;;;;;;;;;;;;;;6.39;100.00;99029.00;5119748;28;19992;-59
2022/12/27 12:38:51;;;;;;;;;;;;;;;6.26;100.00;99015.78;5113605;28;20011;-60
2022/12/27 12:41:25;;;;;;;;;;;;;;;6.29;100.00;99022.50;5121145;28;19991;-61
2022/12/27 12:44:03;;;;;;;;;;;;;;;6.27;100.00;99025.38;5122939;28;19987;-60
2022/12/27 12:46:36;;;;;;;;;;;;;;;6.25;100.00;99019.44;5119500;28;19999;-59
2022/12/27 12:49:11;;;;;;;;;;;;;;;6.36;100.00;99016.16;5119423;28;20006;-60
2022/12/27 12:51:49;;;;;;;;;;;;;;;6.38;100.00;99015.94;5112164;28;19959;-60
2022/12/27 12:54:23;;;;;;;;;;;;;;;6.66;100.00;99020.94;5118680;28;19982;-61
2022/12/27 12:56:58;;;;;;;;;;;;;;;6.37;100.00;99016.97;5119281;28;19991;-60
2022/12/27 12:59:35;;;;;;;;;;;;;;;6.35;100.00;99017.19;5120994;28;19995;-61
2022/12/27 13:02:12;;;;;;;;;;;;;;;6.37;100.00;99015.16;5122722;28;19949;-60
2022/12/27 13:04:51;;;;;;;;;;;;;;;6.45;100.00;99011.44;5111868;28;20620;-61
2022/12/27 13:07:32;;;;;;;;;;;;;;;6.40;100.00;99012.06;5120554;28;19928;-61
2022/12/27 13:10:12;;;;;;;;;;;;;;;6.51;100.00;99010.59;5122551;28;19995;-61
2022/12/27 13:12:45;;;;;;;;;;;;;;;6.44;100.00;99005.31;5111651;28;20631;-61
2022/12/27 13:15:19;;;;;;;;;;;;;;;6.46;100.00;99003.28;5119833;28;20024;-60
2022/12/27 13:17:52;;;;;;;;;;;;;;;6.63;100.00;99002.78;5122799;28;19923;-60
2022/12/27 13:20:23;;;;;;;;;;;;;;;6.45;100.00;98999.00;5120587;28;19959;-61
2022/12/27 13:22:57;;;;;;;;;;;;;;;6.42;100.00;98994.09;5117794;28;19924;-61
2022/12/27 13:25:27;;;;;;;;;;;;;;;6.61;100.00;99004.84;5121083;28;19951;-61
2022/12/27 13:27:58;;;;;;;;;;;;;;;6.61;100.00;99004.84;5122335;28;19983;-61
2022/12/27 13:30:29;;;;;;;;;;;;;;;6.54;100.00;98999.56;5119571;28;19987;-60
2022/12/27 13:33:03;;;;;;;;;;;;;;;6.64;100.00;99009.72;5118867;28;19967;-61
2022/12/27 13:35:34;;;;;;;;;;;;;;;6.39;100.00;98999.00;5121806;28;20644;-61
2022/12/27 13:38:09;;;;;;;;;;;;;;;6.64;100.00;99009.72;5122188;28;20018;-61
2022/12/27 13:40:50;;;;;;;;;;;;;;;6.48;100.00;99006.53;5110708;28;19991;-61
2022/12/27 13:43:37;;;;;;;;;;;;;;;6.70;100.00;99014.19;5119894;28;19959;-60
2022/12/27 13:46:13;;;;;;;;;;;;;;;6.77;100.00;99005.19;5103868;28;19924;-61
2022/12/27 13:49:03;;;;;;;;;;;;;;;6.79;100.00;99012.94;5111173;28;19987;-60
2022/12/27 13:51:36;;;;;;;;;;;;;;;6.66;100.00;99002.34;5094156;28;19987;-60
2022/12/27 13:54:16;;;;;;;;;;;;;;;6.66;100.00;99005.00;5117400;28;19983;-60
2022/12/27 13:56:50;;;;;;;;;;;;;;;6.44;100.00;98999.19;5111436;28;19987;-60
2022/12/27 13:59:30;;;;;;;;;;;;;;;6.56;100.00;99004.66;5119594;28;19983;-61
2022/12/27 14:02:20;;;;;;;;;;;;;;;6.67;100.00;99009.31;5121481;28;19980;-60
2022/12/27 14:04:56;;;;;;;;;;;;;;;6.66;100.00;99012.97;5111896;28;20003;-61
2022/12/27 14:07:31;;;;;;;;;;;;;;;6.53;100.00;99007.75;5120267;28;20019;-62
2022/12/27 14:10:03;;;;;;;;;;;;;;;6.46;100.00;99011.25;5121454;28;19992;-61
2022/12/27 14:12:47;;;;;;;;;;;;;;;6.57;100.00;99014.25;5118089;28;19920;-60
2022/12/27 14:15:16;;;;;;;;;;;;;;;6.72;100.00;99025.41;5118933;28;20034;-60
2022/12/27 14:17:49;;;;;;;;;;;;;;;6.76;100.00;99024.78;5121306;28;20025;-60
2022/12/27 14:20:22;;;;;;;;;;;;;;;6.49;100.00;99023.28;5120026;28;19991;-60
2022/12/27 14:23:12;;;;;;;;;;;;;;;6.42;100.00;99033.91;5116680;28;20404;-61
2022/12/27 14:25:57;;;;;;;;;;;;;;;6.59;100.00;99034.25;5047547;28;19989;-61
2022/12/27 14:28:45;;;;;;;;;;;;;;;6.43;100.00;99042.69;5116800;28;19974;-60
2022/12/27 14:31:26;;;;;;;;;;;;;;;6.45;100.00;99037.97;5118490;28;20011;-59
2022/12/27 14:34:06;;;;;;;;;;;;;;;6.52;100.00;99030.81;5112289;28;19955;-61
2022/12/27 14:36:46;;;;;;;;;;;;;;;6.53;100.00;99029.78;5109922;28;19934;-61
2022/12/27 14:39:26;;;;;;;;;;;;;;;6.53;100.00;99034.28;5118583;28;19983;-60
2022/12/27 14:42:16;;;;;;;;;;;;;;;6.52;100.00;99033.47;5121223;28;19959;-61